Time;durP1;ratioP1;P1;durP2;ratioP2;P2;SDS_P1;SDS_P2;PMS_P1;PMS_P2;Temp;Humidity;BMP_temperature;BMP_pressure;BME280_temperature;BME280_humidity;BME280_pressure;Samples;Min_cycle;Max_cycle;Signal;HPM_P1;HPM_P2
2021/09/21 00:01:12;;;;;;;26.50;12.05;;;;;;;;;;5009439;28;20108;-71
2021/09/21 00:03:37;;;;;;;30.88;13.27;;;;;;;;;;4991889;28;20030;-71
2021/09/21 00:06:05;;;;;;;26.00;12.52;;;;;;;;;;5009152;28;20541;-71
2021/09/21 00:08:35;;;;;;;28.73;12.93;;;;;;;;;;5009329;28;20033;-73
2021/09/21 00:11:02;;;;;;;31.48;12.55;;;;;;;;;;5009449;28;20027;-73
2021/09/21 00:13:29;;;;;;;30.83;13.52;;;;;;;;;;5008173;28;20466;-70
2021/09/21 00:15:56;;;;;;;31.45;14.05;;;;;;;;;;5009174;28;20030;-71
2021/09/21 00:18:22;;;;;;;31.63;13.50;;;;;;;;;;5008984;28;20030;-72
2021/09/21 00:20:47;;;;;;;30.15;13.38;;;;;;;;;;5008869;28;20148;-71
2021/09/21 00:23:13;;;;;;;27.33;12.98;;;;;;;;;;5012236;28;20042;-72
2021/09/21 00:25:39;;;;;;;42.42;13.27;;;;;;;;;;4996102;28;20018;-71
2021/09/21 00:28:04;;;;;;;31.83;14.07;;;;;;;;;;5012746;28;20025;-72
2021/09/21 00:30:30;;;;;;;29.27;12.55;;;;;;;;;;5013719;28;20033;-73
2021/09/21 00:33:05;;;;;;;33.25;13.05;;;;;;;;;;5013548;28;20028;-73
2021/09/21 00:35:34;;;;;;;27.52;11.73;;;;;;;;;;5013456;28;20100;-72
2021/09/21 00:38:00;;;;;;;29.88;12.68;;;;;;;;;;5013475;28;20033;-71
2021/09/21 00:40:26;;;;;;;36.60;13.10;;;;;;;;;;5013088;28;20127;-72
2021/09/21 00:42:52;;;;;;;27.90;12.23;;;;;;;;;;5013213;28;20030;-72
2021/09/21 00:45:26;;;;;;;30.77;11.52;;;;;;;;;;4995986;28;20477;-71
2021/09/21 00:47:53;;;;;;;25.92;12.23;;;;;;;;;;5012507;28;20033;-72
2021/09/21 00:50:20;;;;;;;23.50;11.27;;;;;;;;;;4996523;28;20030;-71
2021/09/21 00:52:51;;;;;;;31.70;12.18;;;;;;;;;;5012805;28;20017;-72
2021/09/21 00:55:17;;;;;;;29.25;12.38;;;;;;;;;;5012660;28;20171;-71
2021/09/21 00:57:43;;;;;;;33.92;11.73;;;;;;;;;;5012828;28;20533;-77
2021/09/21 01:00:12;;;;;;;23.30;11.25;;;;;;;;;;5012944;28;20112;-75
2021/09/21 01:02:37;;;;;;;25.85;10.88;;;;;;;;;;4995371;28;20454;-76
2021/09/21 01:05:04;;;;;;;30.95;11.48;;;;;;;;;;5013028;28;20084;-76
2021/09/21 01:07:30;;;;;;;27.77;10.93;;;;;;;;;;5011816;28;20133;-76
2021/09/21 01:10:08;;;;;;;21.08;11.95;;;;;;;;;;4993060;28;20125;-76
2021/09/21 01:12:34;;;;;;;21.60;11.18;;;;;;;;;;4993107;28;20026;-76
2021/09/21 01:15:01;;;;;;;32.05;12.20;;;;;;;;;;4993038;28;20599;-76
2021/09/21 01:17:27;;;;;;;26.42;12.40;;;;;;;;;;4992791;28;20106;-76
2021/09/21 01:19:53;;;;;;;28.60;11.57;;;;;;;;;;4975401;28;20030;-76
2021/09/21 01:22:19;;;;;;;36.15;13.48;;;;;;;;;;4992792;28;20088;-76
2021/09/21 01:24:45;;;;;;;31.15;12.20;;;;;;;;;;4993055;28;20480;-76
2021/09/21 01:27:10;;;;;;;34.65;12.30;;;;;;;;;;4975337;28;20041;-71
2021/09/21 01:29:36;;;;;;;32.05;13.00;;;;;;;;;;4975458;28;20022;-73
2021/09/21 01:32:02;;;;;;;24.83;13.07;;;;;;;;;;4961164;28;20137;-73
2021/09/21 01:34:28;;;;;;;30.40;14.25;;;;;;;;;;4955454;28;20023;-72
2021/09/21 01:36:54;;;;;;;35.15;11.63;;;;;;;;;;4956409;28;20387;-72
2021/09/21 01:39:19;;;;;;;31.25;13.23;;;;;;;;;;4955736;28;20022;-73
2021/09/21 01:41:46;;;;;;;26.05;12.13;;;;;;;;;;4973185;28;20031;-72
2021/09/21 01:44:14;;;;;;;31.73;13.55;;;;;;;;;;4955382;28;20034;-73
2021/09/21 01:46:40;;;;;;;31.23;13.32;;;;;;;;;;4973006;28;20030;-72
2021/09/21 01:49:05;;;;;;;29.52;12.80;;;;;;;;;;4973050;28;20050;-73
2021/09/21 01:51:39;;;;;;;26.95;12.02;;;;;;;;;;4955565;28;20574;-73
2021/09/21 01:54:29;;;;;;;30.38;12.88;;;;;;;;;;4955578;28;20483;-74
2021/09/21 01:59:38;;;;;;;28.80;11.90;;;;;;;;;;4972956;28;20061;-72
2021/09/21 02:02:03;;;;;;;33.83;12.77;;;;;;;;;;4955212;28;20027;-73
2021/09/21 02:04:29;;;;;;;31.80;13.30;;;;;;;;;;4972658;28;20102;-71
2021/09/21 02:06:56;;;;;;;32.13;13.27;;;;;;;;;;4972584;28;20106;-72
2021/09/21 02:09:21;;;;;;;32.67;12.73;;;;;;;;;;4955129;28;20023;-73
2021/09/21 02:11:47;;;;;;;33.78;13.60;;;;;;;;;;4953679;28;20033;-72
2021/09/21 02:14:14;;;;;;;34.10;13.95;;;;;;;;;;4972258;28;20034;-72
2021/09/21 02:16:41;;;;;;;32.93;12.60;;;;;;;;;;4972122;28;20485;-72
2021/09/21 02:19:07;;;;;;;31.95;12.50;;;;;;;;;;4971190;28;20034;-73
2021/09/21 02:21:33;;;;;;;30.48;12.75;;;;;;;;;;4972380;28;20031;-73
2021/09/21 02:24:00;;;;;;;37.97;14.27;;;;;;;;;;4955761;28;20498;-74
2021/09/21 02:26:27;;;;;;;32.67;13.33;;;;;;;;;;4972859;28;20026;-73
2021/09/21 02:28:53;;;;;;;33.65;13.60;;;;;;;;;;4973213;28;20114;-74
2021/09/21 02:31:19;;;;;;;34.80;13.70;;;;;;;;;;4981006;28;20050;-74
2021/09/21 02:33:45;;;;;;;35.40;13.38;;;;;;;;;;4974951;28;20474;-73
2021/09/21 02:36:12;;;;;;;34.10;14.52;;;;;;;;;;4991449;28;20072;-71
2021/09/21 02:38:37;;;;;;;30.02;14.55;;;;;;;;;;4974022;28;20026;-71
2021/09/21 02:41:04;;;;;;;32.05;12.88;;;;;;;;;;4991245;28;20035;-72
2021/09/21 02:43:30;;;;;;;29.55;13.77;;;;;;;;;;4991182;28;20031;-71
2021/09/21 02:46:00;;;;;;;37.85;13.70;;;;;;;;;;4990790;28;20089;-71
2021/09/21 02:48:26;;;;;;;33.40;13.07;;;;;;;;;;4991153;28;20022;-72
2021/09/21 02:50:52;;;;;;;34.75;13.23;;;;;;;;;;4990861;28;20026;-71
2021/09/21 02:53:18;;;;;;;32.07;13.00;;;;;;;;;;4973705;28;20019;-72
2021/09/21 02:55:44;;;;;;;28.73;13.23;;;;;;;;;;4990953;28;20030;-71
2021/09/21 02:58:10;;;;;;;32.60;13.13;;;;;;;;;;4989678;28;20109;-71
2021/09/21 03:00:35;;;;;;;33.22;13.63;;;;;;;;;;4971401;28;20105;-71
2021/09/21 03:03:02;;;;;;;30.27;13.73;;;;;;;;;;4990476;28;20125;-71
2021/09/21 03:05:31;;;;;;;32.42;14.15;;;;;;;;;;4989568;28;20088;-71
2021/09/21 03:08:05;;;;;;;28.60;12.65;;;;;;;;;;4989319;28;20026;-71
2021/09/21 03:13:46;;;;;;;27.67;12.80;;;;;;;;;;4990083;28;20062;-71
2021/09/21 03:18:56;;;;;;;33.67;14.03;;;;;;;;;;4968372;28;20033;-72
2021/09/21 03:21:23;;;;;;;31.73;13.17;;;;;;;;;;4970990;28;20022;-72
2021/09/21 03:23:48;;;;;;;29.42;13.43;;;;;;;;;;4970419;28;20042;-71
2021/09/21 03:26:14;;;;;;;35.43;14.63;;;;;;;;;;4970779;28;20035;-72
2021/09/21 03:28:40;;;;;;;38.40;13.38;;;;;;;;;;4970465;28;20547;-71
2021/09/21 03:31:06;;;;;;;35.10;14.43;;;;;;;;;;4990027;28;20395;-71
2021/09/21 03:33:32;;;;;;;45.17;15.32;;;;;;;;;;5009335;28;20034;-71
2021/09/21 03:35:57;;;;;;;31.80;14.73;;;;;;;;;;5009854;28;20129;-73
2021/09/21 03:38:23;;;;;;;36.50;14.07;;;;;;;;;;4992088;28;20053;-71
2021/09/21 03:40:48;;;;;;;33.30;15.35;;;;;;;;;;4992056;28;20650;-72
2021/09/21 03:43:14;;;;;;;37.92;13.98;;;;;;;;;;4991787;28;20478;-71
2021/09/21 03:45:40;;;;;;;34.03;13.77;;;;;;;;;;4991954;28;20038;-71
2021/09/21 03:48:07;;;;;;;29.73;13.88;;;;;;;;;;4991297;28;20026;-71
2021/09/21 03:50:33;;;;;;;25.52;12.00;;;;;;;;;;4991973;28;20057;-72
2021/09/21 03:52:59;;;;;;;30.92;12.98;;;;;;;;;;4989744;28;20105;-70
2021/09/21 03:55:25;;;;;;;31.52;13.82;;;;;;;;;;4990497;28;20109;-73
2021/09/21 03:57:51;;;;;;;29.25;12.20;;;;;;;;;;4988638;28;20033;-71
2021/09/21 04:00:17;;;;;;;28.90;11.73;;;;;;;;;;4989996;28;20490;-72
2021/09/21 04:02:43;;;;;;;35.63;13.30;;;;;;;;;;4990327;28;20040;-71
2021/09/21 04:05:09;;;;;;;30.67;13.55;;;;;;;;;;4989813;28;20237;-71
2021/09/21 04:07:34;;;;;;;28.17;12.35;;;;;;;;;;5005352;28;20054;-71
2021/09/21 04:10:00;;;;;;;33.67;13.02;;;;;;;;;;5008596;28;20057;-72
2021/09/21 04:12:26;;;;;;;32.78;13.10;;;;;;;;;;4992341;28;20056;-72
2021/09/21 04:14:51;;;;;;;35.85;13.52;;;;;;;;;;4992202;28;20030;-71
2021/09/21 04:17:18;;;;;;;43.60;13.53;;;;;;;;;;5009800;28;20033;-72
2021/09/21 04:19:44;;;;;;;49.88;14.40;;;;;;;;;;5009702;28;20065;-71
2021/09/21 04:22:09;;;;;;;33.03;12.95;;;;;;;;;;4991334;28;20057;-70
2021/09/21 04:24:35;;;;;;;32.55;12.82;;;;;;;;;;5008201;28;20040;-71
2021/09/21 04:27:06;;;;;;;30.25;13.50;;;;;;;;;;5009440;28;20065;-71
2021/09/21 04:29:31;;;;;;;37.15;13.63;;;;;;;;;;5009518;28;20026;-76
2021/09/21 04:32:01;;;;;;;28.77;12.40;;;;;;;;;;5009366;28;20096;-76
2021/09/21 04:34:30;;;;;;;36.28;13.00;;;;;;;;;;4991969;28;20038;-76
2021/09/21 04:36:57;;;;;;;31.55;13.15;;;;;;;;;;5009540;28;20084;-76
2021/09/21 04:39:22;;;;;;;36.42;13.68;;;;;;;;;;5008263;28;20137;-76
2021/09/21 04:41:48;;;;;;;31.17;12.60;;;;;;;;;;5010824;28;20509;-76
2021/09/21 04:44:14;;;;;;;38.78;14.10;;;;;;;;;;5012991;28;20100;-75
2021/09/21 04:46:40;;;;;;;31.60;12.63;;;;;;;;;;4994539;28;20034;-76
2021/09/21 04:49:06;;;;;;;28.50;13.10;;;;;;;;;;5010100;28;20037;-74
2021/09/21 04:51:32;;;;;;;32.20;12.88;;;;;;;;;;5010320;28;20038;-77
2021/09/21 04:53:58;;;;;;;42.70;18.58;;;;;;;;;;4992013;28;20033;-75
2021/09/21 04:56:25;;;;;;;37.30;14.13;;;;;;;;;;5009692;28;20061;-76
2021/09/21 04:58:50;;;;;;;32.00;13.23;;;;;;;;;;5009257;28;20026;-76
2021/09/21 05:01:16;;;;;;;29.48;12.88;;;;;;;;;;5007345;28;20037;-75
2021/09/21 05:03:41;;;;;;;34.47;12.70;;;;;;;;;;5009285;28;20030;-76
2021/09/21 05:06:07;;;;;;;37.00;15.18;;;;;;;;;;5009101;28;20152;-76
2021/09/21 05:08:32;;;;;;;36.83;13.68;;;;;;;;;;5010590;28;20042;-76
2021/09/21 05:10:58;;;;;;;40.88;14.10;;;;;;;;;;5012464;28;20029;-76
2021/09/21 05:13:23;;;;;;;33.08;12.90;;;;;;;;;;5012767;28;20022;-75
2021/09/21 05:15:49;;;;;;;34.50;17.35;;;;;;;;;;5012676;28;20115;-79
2021/09/21 05:18:15;;;;;;;45.22;17.08;;;;;;;;;;5018479;28;20331;-75
2021/09/21 05:20:40;;;;;;;35.10;13.93;;;;;;;;;;5005435;28;20063;-76
2021/09/21 05:23:06;;;;;;;44.38;18.08;;;;;;;;;;5001552;28;20030;-75
2021/09/21 05:25:31;;;;;;;48.65;15.40;;;;;;;;;;4996234;28;20041;-76
2021/09/21 05:27:57;;;;;;;33.22;14.65;;;;;;;;;;4994885;28;20029;-75
2021/09/21 05:30:22;;;;;;;37.78;13.80;;;;;;;;;;5012695;28;20029;-77
2021/09/21 05:32:48;;;;;;;33.03;14.70;;;;;;;;;;5012662;28;20026;-76
2021/09/21 05:35:14;;;;;;;38.33;15.57;;;;;;;;;;5012039;28;20026;-75
2021/09/21 05:37:39;;;;;;;39.63;14.70;;;;;;;;;;4994611;28;20030;-76
2021/09/21 05:40:06;;;;;;;36.73;14.67;;;;;;;;;;4994016;28;20482;-77
2021/09/21 05:42:34;;;;;;;35.38;12.02;;;;;;;;;;5011879;28;20088;-75
2021/09/21 05:44:59;;;;;;;39.70;13.18;;;;;;;;;;5010347;28;20030;-76
2021/09/21 05:47:25;;;;;;;34.45;14.98;;;;;;;;;;5011877;28;20121;-76
2021/09/21 05:49:51;;;;;;;34.55;12.95;;;;;;;;;;4994285;28;20036;-75
2021/09/21 05:52:16;;;;;;;39.78;14.70;;;;;;;;;;5012831;28;20565;-78
2021/09/21 05:54:42;;;;;;;32.58;13.05;;;;;;;;;;4997202;28;20021;-76
2021/09/21 05:57:07;;;;;;;32.45;12.98;;;;;;;;;;5013230;28;20410;-76
2021/09/21 05:59:32;;;;;;;32.20;14.13;;;;;;;;;;4995259;28;20037;-76
2021/09/21 06:01:58;;;;;;;36.58;15.77;;;;;;;;;;5010806;28;20036;-75
2021/09/21 06:04:23;;;;;;;50.40;14.68;;;;;;;;;;4994484;28;20033;-76
2021/09/21 06:06:49;;;;;;;32.50;13.43;;;;;;;;;;5004741;28;20052;-73
2021/09/21 06:09:14;;;;;;;38.45;15.30;;;;;;;;;;4977070;28;20037;-77
2021/09/21 06:11:40;;;;;;;66.47;15.70;;;;;;;;;;4976202;28;20037;-76
2021/09/21 06:14:06;;;;;;;53.38;28.27;;;;;;;;;;4990805;28;20379;-77
2021/09/21 06:16:32;;;;;;;44.92;15.30;;;;;;;;;;4990462;28;20045;-77
2021/09/21 06:18:58;;;;;;;40.22;19.58;;;;;;;;;;4971498;28;20082;-76
2021/09/21 06:21:25;;;;;;;44.47;16.95;;;;;;;;;;4990369;28;20576;-77
2021/09/21 06:23:51;;;;;;;42.15;15.80;;;;;;;;;;4973408;28;20571;-76
2021/09/21 06:26:17;;;;;;;34.00;14.32;;;;;;;;;;4973436;28;20026;-76
2021/09/21 06:28:43;;;;;;;30.85;12.65;;;;;;;;;;4991723;28;20034;-76
2021/09/21 06:31:09;;;;;;;33.00;12.68;;;;;;;;;;5001848;28;20123;-76
2021/09/21 06:33:35;;;;;;;30.65;13.40;;;;;;;;;;4973918;28;20444;-76
2021/09/21 06:36:01;;;;;;;38.58;13.85;;;;;;;;;;4991024;28;20027;-74
2021/09/21 06:38:27;;;;;;;28.98;13.52;;;;;;;;;;4988871;28;20026;-77
2021/09/21 06:40:52;;;;;;;31.48;12.82;;;;;;;;;;4986099;28;20564;-77
2021/09/21 06:43:18;;;;;;;37.35;12.00;;;;;;;;;;4965004;28;20029;-77
2021/09/21 06:45:43;;;;;;;32.97;12.18;;;;;;;;;;4981129;28;20418;-76
2021/09/21 06:48:09;;;;;;;32.38;12.30;;;;;;;;;;4972909;28;20038;-77
2021/09/21 06:50:34;;;;;;;40.72;14.48;;;;;;;;;;4975428;28;20425;-76
2021/09/21 06:53:00;;;;;;;35.85;14.80;;;;;;;;;;4977931;28;20113;-76
2021/09/21 06:55:27;;;;;;;37.33;13.05;;;;;;;;;;4973351;28;20052;-77
2021/09/21 06:57:53;;;;;;;35.15;13.25;;;;;;;;;;4979501;28;20538;-76
2021/09/21 07:00:20;;;;;;;35.45;12.45;;;;;;;;;;4994750;28;20054;-77
2021/09/21 07:02:50;;;;;;;36.22;13.57;;;;;;;;;;4990912;28;20498;-77
2021/09/21 07:05:16;;;;;;;78.35;17.27;;;;;;;;;;4993002;28;20034;-77
2021/09/21 07:07:47;;;;;;;33.10;13.55;;;;;;;;;;4996425;28;20129;-76
2021/09/21 07:10:15;;;;;;;46.55;13.23;;;;;;;;;;4996017;28;20034;-73
2021/09/21 07:12:40;;;;;;;35.38;12.18;;;;;;;;;;4984255;28;20034;-75
2021/09/21 07:15:07;;;;;;;32.08;12.48;;;;;;;;;;4978580;28;20026;-75
2021/09/21 07:17:33;;;;;;;39.90;16.73;;;;;;;;;;4971853;28;20030;-75
2021/09/21 07:19:59;;;;;;;32.20;12.13;;;;;;;;;;4987929;28;20105;-77
2021/09/21 07:22:25;;;;;;;31.85;12.63;;;;;;;;;;4978701;28;20457;-77
2021/09/21 07:24:51;;;;;;;39.45;12.85;;;;;;;;;;4985931;28;20696;-77
2021/09/21 07:27:17;;;;;;;27.20;12.82;;;;;;;;;;4990019;28;20063;-76
2021/09/21 07:29:42;;;;;;;27.40;12.43;;;;;;;;;;4983498;28;20130;-77
2021/09/21 07:32:08;;;;;;;30.17;12.05;;;;;;;;;;4967362;28;20510;-79
2021/09/21 07:34:34;;;;;;;31.77;13.30;;;;;;;;;;4990463;28;20073;-76
2021/09/21 07:37:00;;;;;;;31.80;11.95;;;;;;;;;;4989231;28;20034;-78
2021/09/21 07:39:25;;;;;;;32.15;12.65;;;;;;;;;;4975412;28;20026;-78
2021/09/21 07:41:52;;;;;;;34.78;12.60;;;;;;;;;;4986697;28;20049;-77
2021/09/21 07:44:17;;;;;;;38.25;13.63;;;;;;;;;;4983588;28;20407;-76
2021/09/21 07:46:43;;;;;;;32.28;12.15;;;;;;;;;;4971326;28;20030;-75
2021/09/21 07:49:08;;;;;;;34.90;12.45;;;;;;;;;;4953221;28;20065;-78
2021/09/21 07:51:34;;;;;;;33.10;13.30;;;;;;;;;;4972506;28;20107;-75
2021/09/21 07:53:59;;;;;;;31.45;12.60;;;;;;;;;;4964213;28;21050;-76
2021/09/21 07:56:25;;;;;;;28.10;12.65;;;;;;;;;;4988313;28;20109;-77
2021/09/21 07:58:50;;;;;;;42.13;13.50;;;;;;;;;;4994547;28;20026;-74
2021/09/21 08:01:16;;;;;;;33.90;12.75;;;;;;;;;;4987626;28;20475;-78
2021/09/21 08:03:42;;;;;;;38.78;12.38;;;;;;;;;;4987043;28;20110;-76
2021/09/21 08:06:09;;;;;;;30.30;11.48;;;;;;;;;;4987905;28;20390;-76
2021/09/21 08:08:35;;;;;;;30.55;11.38;;;;;;;;;;4986941;28;20420;-76
2021/09/21 08:11:02;;;;;;;28.33;12.13;;;;;;;;;;4986061;28;20033;-73
2021/09/21 08:13:30;;;;;;;32.03;14.27;;;;;;;;;;4978045;28;20437;-76
2021/09/21 08:15:57;;;;;;;36.83;13.20;;;;;;;;;;4989920;28;20019;-76
2021/09/21 08:18:22;;;;;;;42.22;13.88;;;;;;;;;;4970477;28;20088;-76
2021/09/21 08:20:47;;;;;;;35.95;12.30;;;;;;;;;;4984207;28;20023;-77
2021/09/21 08:23:13;;;;;;;39.05;12.52;;;;;;;;;;4973463;28;20034;-75
2021/09/21 08:25:39;;;;;;;39.10;12.68;;;;;;;;;;4991488;28;20030;-77
2021/09/21 08:28:06;;;;;;;38.55;13.18;;;;;;;;;;4992029;28;20117;-77
2021/09/21 08:30:32;;;;;;;36.65;13.38;;;;;;;;;;4971461;28;20042;-77
2021/09/21 08:32:59;;;;;;;33.58;12.73;;;;;;;;;;4985886;28;20081;-77
2021/09/21 08:35:25;;;;;;;34.95;15.45;;;;;;;;;;4985711;28;20034;-77
2021/09/21 08:37:51;;;;;;;31.67;13.10;;;;;;;;;;4983616;28;20030;-76
2021/09/21 08:40:16;;;;;;;34.03;12.73;;;;;;;;;;4978491;28;20022;-76
2021/09/21 08:42:42;;;;;;;28.90;11.32;;;;;;;;;;4968876;28;20034;-78
2021/09/21 08:45:09;;;;;;;39.15;14.50;;;;;;;;;;4978763;28;20030;-76
2021/09/21 08:47:35;;;;;;;32.08;11.73;;;;;;;;;;4989190;28;20040;-77
2021/09/21 08:50:03;;;;;;;49.97;13.70;;;;;;;;;;4980770;28;20026;-72
2021/09/21 08:52:29;;;;;;;26.45;11.68;;;;;;;;;;4978755;28;20023;-78
2021/09/21 08:54:55;;;;;;;39.13;14.63;;;;;;;;;;4972781;28;20562;-76
2021/09/21 08:57:21;;;;;;;34.13;12.98;;;;;;;;;;4971876;28;20030;-78
2021/09/21 08:59:52;;;;;;;36.65;13.45;;;;;;;;;;4989677;28;20080;-76
2021/09/21 09:02:18;;;;;;;174.88;48.53;;;;;;;;;;4978219;28;20423;-75
2021/09/21 09:04:59;;;;;;;45.38;20.02;;;;;;;;;;4989483;28;20042;-77
2021/09/21 09:07:33;;;;;;;31.42;12.57;;;;;;;;;;4954280;28;20518;-77
2021/09/21 09:10:05;;;;;;;28.90;12.25;;;;;;;;;;4983941;28;20066;-76
2021/09/21 09:12:33;;;;;;;41.70;12.40;;;;;;;;;;4985153;28;20061;-76
2021/09/21 09:15:13;;;;;;;31.08;11.50;;;;;;;;;;4979199;28;20105;-75
2021/09/21 09:17:51;;;;;;;38.72;12.82;;;;;;;;;;4987853;28;20503;-76
2021/09/21 09:20:17;;;;;;;25.83;10.65;;;;;;;;;;4973214;28;20029;-75
2021/09/21 09:22:42;;;;;;;35.28;12.70;;;;;;;;;;4959918;28;20045;-76
2021/09/21 09:25:08;;;;;;;27.80;11.27;;;;;;;;;;4975785;28;20038;-76
2021/09/21 09:27:38;;;;;;;36.35;11.77;;;;;;;;;;4991324;28;20035;-76
2021/09/21 09:30:09;;;;;;;26.77;11.50;;;;;;;;;;4976815;28;20042;-77
2021/09/21 09:32:54;;;;;;;35.40;12.13;;;;;;;;;;4972462;28;20570;-77
2021/09/21 09:35:31;;;;;;;33.95;11.65;;;;;;;;;;4963820;28;20049;-77
2021/09/21 09:37:59;;;;;;;31.00;14.20;;;;;;;;;;4986250;28;20030;-76
2021/09/21 09:40:26;;;;;;;29.73;11.65;;;;;;;;;;4989331;28;20034;-75
2021/09/21 09:42:52;;;;;;;45.45;15.75;;;;;;;;;;4971831;28;20072;-77
2021/09/21 09:45:33;;;;;;;27.48;11.52;;;;;;;;;;4967126;28;20026;-77
2021/09/21 09:47:59;;;;;;;31.38;11.43;;;;;;;;;;4990964;28;20490;-77
2021/09/21 09:50:33;;;;;;;40.22;12.07;;;;;;;;;;4991501;28;20060;-76
2021/09/21 09:53:12;;;;;;;24.85;11.05;;;;;;;;;;4979156;28;20117;-76
2021/09/21 09:55:39;;;;;;;35.50;13.05;;;;;;;;;;4989713;28;20034;-77
2021/09/21 09:58:06;;;;;;;30.52;13.88;;;;;;;;;;4963761;28;20070;-78
2021/09/21 10:00:32;;;;;;;33.70;12.45;;;;;;;;;;4965522;28;20487;-76
2021/09/21 10:02:59;;;;;;;28.10;10.25;;;;;;;;;;4983087;28;20129;-77
2021/09/21 10:05:26;;;;;;;29.75;12.35;;;;;;;;;;4986878;28;20425;-76
2021/09/21 10:07:51;;;;;;;26.45;10.93;;;;;;;;;;4983916;28;20122;-75
2021/09/21 10:10:17;;;;;;;22.25;10.00;;;;;;;;;;4987093;28;20053;-77
2021/09/21 10:12:44;;;;;;;24.52;10.65;;;;;;;;;;4976890;28;20640;-76
2021/09/21 10:15:10;;;;;;;25.90;10.15;;;;;;;;;;4977320;28;20035;-76
2021/09/21 10:17:36;;;;;;;26.98;9.77;;;;;;;;;;4991026;28;20089;-76
2021/09/21 10:20:12;;;;;;;19.80;9.63;;;;;;;;;;4989514;28;20026;-78
2021/09/21 10:22:38;;;;;;;28.00;11.13;;;;;;;;;;4993089;28;20088;-78
2021/09/21 10:25:07;;;;;;;27.17;12.05;;;;;;;;;;4992412;28;20034;-78
2021/09/21 10:27:38;;;;;;;28.33;11.13;;;;;;;;;;4969334;28;20442;-77
2021/09/21 10:30:07;;;;;;;26.45;10.32;;;;;;;;;;4987706;28;20036;-78
2021/09/21 10:32:41;;;;;;;33.83;10.32;;;;;;;;;;4971651;28;20146;-76
2021/09/21 10:35:16;;;;;;;23.35;10.73;;;;;;;;;;4998802;28;20030;-77
2021/09/21 10:37:42;;;;;;;22.65;10.43;;;;;;;;;;4992243;28;20030;-76
2021/09/21 10:40:08;;;;;;;30.48;9.93;;;;;;;;;;4992355;28;20038;-73
2021/09/21 10:42:35;;;;;;;37.58;13.05;;;;;;;;;;5002607;28;20101;-76
2021/09/21 10:45:04;;;;;;;26.58;10.55;;;;;;;;;;4974684;28;20089;-74
2021/09/21 10:47:38;;;;;;;25.50;10.93;;;;;;;;;;4971168;28;20090;-76
2021/09/21 10:50:12;;;;;;;32.50;14.95;;;;;;;;;;4978564;28;20074;-76
2021/09/21 10:52:38;;;;;;;27.90;11.45;;;;;;;;;;4984023;28;20362;-75
2021/09/21 10:55:07;;;;;;;23.08;10.45;;;;;;;;;;5001049;28;20030;-76
2021/09/21 10:57:34;;;;;;;29.50;12.57;;;;;;;;;;4999752;28;20910;-74
2021/09/21 11:00:07;;;;;;;24.77;11.02;;;;;;;;;;4992795;28;20036;-76
2021/09/21 11:02:41;;;;;;;26.35;10.18;;;;;;;;;;4994167;28;20378;-77
2021/09/21 11:05:16;;;;;;;24.13;9.70;;;;;;;;;;4988044;28;20026;-76
2021/09/21 11:07:51;;;;;;;24.38;10.15;;;;;;;;;;4987802;28;20049;-76
2021/09/21 11:10:18;;;;;;;23.60;11.07;;;;;;;;;;4985678;28;20128;-78
2021/09/21 11:12:51;;;;;;;23.90;11.60;;;;;;;;;;4992940;28;20455;-76
2021/09/21 11:15:21;;;;;;;24.88;10.30;;;;;;;;;;4988682;28;20022;-74
2021/09/21 11:17:47;;;;;;;23.70;9.75;;;;;;;;;;4971346;28;20046;-76
2021/09/21 11:20:13;;;;;;;19.88;9.10;;;;;;;;;;4971442;28;20073;-75
2021/09/21 11:22:38;;;;;;;22.15;9.48;;;;;;;;;;4991604;28;20060;-77
2021/09/21 11:25:09;;;;;;;21.63;9.23;;;;;;;;;;4981972;28;20034;-77
2021/09/21 11:27:37;;;;;;;15.10;8.05;;;;;;;;;;4984517;28;20043;-77
2021/09/21 11:30:09;;;;;;;30.98;11.85;;;;;;;;;;4969109;28;20502;-75
2021/09/21 11:32:36;;;;;;;23.83;8.50;;;;;;;;;;4982386;28;20050;-75
2021/09/21 11:35:06;;;;;;;29.48;9.98;;;;;;;;;;4962861;28;20454;-76
2021/09/21 11:37:32;;;;;;;15.32;7.90;;;;;;;;;;4984329;28;20030;-78
2021/09/21 11:39:58;;;;;;;18.25;8.07;;;;;;;;;;4985510;28;20046;-76
2021/09/21 11:42:30;;;;;;;17.73;7.60;;;;;;;;;;4968180;28;20061;-78
2021/09/21 11:45:05;;;;;;;19.00;7.63;;;;;;;;;;4972219;28;20026;-79
2021/09/21 11:47:42;;;;;;;11.20;6.05;;;;;;;;;;4986204;28;20129;-76
2021/09/21 11:50:23;;;;;;;15.02;7.20;;;;;;;;;;4970788;28;20467;-74
2021/09/21 11:52:59;;;;;;;15.50;7.15;;;;;;;;;;4966092;28;20394;-76
2021/09/21 11:55:28;;;;;;;11.68;6.90;;;;;;;;;;4989544;28;20598;-75
2021/09/21 11:57:55;;;;;;;15.07;6.53;;;;;;;;;;4964202;28;20038;-76
2021/09/21 12:00:31;;;;;;;13.00;6.43;;;;;;;;;;4976482;28;20046;-76
2021/09/21 12:03:07;;;;;;;37.78;8.10;;;;;;;;;;4969272;28;20141;-76
2021/09/21 12:05:35;;;;;;;18.90;6.85;;;;;;;;;;4972067;28;20459;-74
2021/09/21 12:08:13;;;;;;;16.48;6.25;;;;;;;;;;4991782;28;20081;-75
2021/09/21 12:10:42;;;;;;;15.30;6.38;;;;;;;;;;4977054;28;20035;-74
2021/09/21 12:13:18;;;;;;;13.65;6.55;;;;;;;;;;4985438;28;20104;-75
2021/09/21 12:15:48;;;;;;;24.50;8.38;;;;;;;;;;4991879;28;20398;-75
2021/09/21 12:18:15;;;;;;;17.85;7.53;;;;;;;;;;4975802;28;20034;-75
2021/09/21 12:20:53;;;;;;;17.83;6.55;;;;;;;;;;4992344;28;20522;-77
2021/09/21 12:23:25;;;;;;;15.65;5.60;;;;;;;;;;4991467;28;20042;-76
2021/09/21 12:25:54;;;;;;;11.93;5.30;;;;;;;;;;4967418;28;20036;-76
2021/09/21 12:28:29;;;;;;;19.65;6.35;;;;;;;;;;4955493;28;20048;-75
2021/09/21 12:30:57;;;;;;;16.48;7.00;;;;;;;;;;4990213;28;20064;-78
2021/09/21 12:33:23;;;;;;;14.43;5.43;;;;;;;;;;4966120;28;20030;-76
2021/09/21 12:35:52;;;;;;;13.48;6.35;;;;;;;;;;4980054;28;20046;-78
2021/09/21 12:38:20;;;;;;;13.77;5.78;;;;;;;;;;4959890;28;20041;-74
2021/09/21 12:40:56;;;;;;;10.20;5.35;;;;;;;;;;4958373;28;20034;-78
2021/09/21 12:43:27;;;;;;;14.18;5.50;;;;;;;;;;4976256;28;20093;-76
2021/09/21 12:45:59;;;;;;;11.52;5.93;;;;;;;;;;4961317;28;20073;-74
2021/09/21 12:48:34;;;;;;;22.38;10.90;;;;;;;;;;4954116;28;20109;-77
2021/09/21 12:51:03;;;;;;;17.13;6.95;;;;;;;;;;4955432;28;20039;-76
2021/09/21 12:53:29;;;;;;;12.07;4.82;;;;;;;;;;4968791;28;20065;-76
2021/09/21 12:55:57;;;;;;;14.07;5.80;;;;;;;;;;4979573;28;20054;-79
2021/09/21 12:58:27;;;;;;;13.68;6.00;;;;;;;;;;4967723;28;20027;-75
2021/09/21 13:00:53;;;;;;;12.00;6.47;;;;;;;;;;4969671;28;20395;-72
2021/09/21 13:03:22;;;;;;;11.70;5.65;;;;;;;;;;4957531;28;20026;-75
2021/09/21 13:05:48;;;;;;;12.88;5.10;;;;;;;;;;4940675;28;20165;-76
2021/09/21 13:08:13;;;;;;;10.25;5.05;;;;;;;;;;4955217;28;20441;-77
2021/09/21 13:10:39;;;;;;;19.52;5.93;;;;;;;;;;4972142;28;20053;-76
2021/09/21 13:13:06;;;;;;;15.07;6.75;;;;;;;;;;4955993;28;20117;-75
2021/09/21 13:15:33;;;;;;;8.85;4.75;;;;;;;;;;4972181;28;20029;-77
2021/09/21 13:18:02;;;;;;;12.30;5.40;;;;;;;;;;4985599;28;20451;-77
2021/09/21 13:20:33;;;;;;;12.45;5.35;;;;;;;;;;4975656;28;20030;-78
2021/09/21 13:23:00;;;;;;;10.52;5.43;;;;;;;;;;4962014;28;20038;-76
2021/09/21 13:25:27;;;;;;;13.05;5.57;;;;;;;;;;4935766;28;20031;-76
2021/09/21 13:27:52;;;;;;;14.63;6.72;;;;;;;;;;4976755;28;20042;-77
2021/09/21 13:30:18;;;;;;;24.70;5.53;;;;;;;;;;4970244;28;20030;-77
2021/09/21 13:32:45;;;;;;;17.27;5.97;;;;;;;;;;4952373;28;20047;-75
2021/09/21 13:35:13;;;;;;;11.73;5.55;;;;;;;;;;4966627;28;20108;-76
2021/09/21 13:37:40;;;;;;;32.70;6.70;;;;;;;;;;4971419;28;20065;-75
2021/09/21 13:40:08;;;;;;;12.00;4.90;;;;;;;;;;4978958;28;20031;-77
2021/09/21 13:42:34;;;;;;;19.67;6.60;;;;;;;;;;4977060;28;20105;-75
2021/09/21 13:45:00;;;;;;;11.50;5.57;;;;;;;;;;4967640;28;20454;-76
2021/09/21 13:47:26;;;;;;;16.40;5.22;;;;;;;;;;4987731;28;20029;-79
2021/09/21 13:49:52;;;;;;;16.02;4.85;;;;;;;;;;4964554;28;20069;-76
2021/09/21 13:52:18;;;;;;;22.33;6.07;;;;;;;;;;4945319;28;20058;-76
2021/09/21 13:54:44;;;;;;;14.13;6.97;;;;;;;;;;4970085;28;20054;-75
2021/09/21 13:57:10;;;;;;;8.10;4.70;;;;;;;;;;4983357;28;20030;-77
2021/09/21 13:59:36;;;;;;;7.95;5.30;;;;;;;;;;4972648;28;20043;-76
2021/09/21 14:02:06;;;;;;;14.70;5.35;;;;;;;;;;4955474;28;20035;-77
2021/09/21 14:04:34;;;;;;;10.15;5.65;;;;;;;;;;4970149;28;20464;-73
2021/09/21 14:07:01;;;;;;;17.83;6.45;;;;;;;;;;4957324;28;20364;-75
2021/09/21 14:09:27;;;;;;;13.20;4.93;;;;;;;;;;4959592;28;20093;-75
2021/09/21 14:11:53;;;;;;;10.95;5.43;;;;;;;;;;4972516;28;20030;-75
2021/09/21 14:14:19;;;;;;;9.38;5.10;;;;;;;;;;4972320;28;20088;-74
2021/09/21 14:16:45;;;;;;;8.50;4.80;;;;;;;;;;4972199;28;20045;-74
2021/09/21 14:19:11;;;;;;;10.82;5.43;;;;;;;;;;4955299;28;20743;-74
2021/09/21 14:21:38;;;;;;;11.02;5.50;;;;;;;;;;4980181;28;20490;-75
2021/09/21 14:24:04;;;;;;;11.27;5.80;;;;;;;;;;4963495;28;20035;-74
2021/09/21 14:26:31;;;;;;;8.20;5.00;;;;;;;;;;4954449;28;20062;-74
2021/09/21 14:28:56;;;;;;;8.13;4.65;;;;;;;;;;4970488;28;20117;-75
2021/09/21 14:31:22;;;;;;;11.68;5.70;;;;;;;;;;4980014;28;20125;-74